Carey, Texas
Current Conditions -  °F | °C
As of 9:53 AM on Tuesday 21 Oct 2014 (Local Time) from KCDS Reporting Station
Clear Clear  
Wind Chill: 70°   Ceiling: Unl
Heat Index: 70°   Visibility: 10mi
Dew Point: 55°   Wind: 5mph
Humidity: 59%   Direction: 230°SW
Pressure: 30.13"   Gusts: NA
Location:  34.47°N, 100.33°W
Report Text: KCDS 211453Z AUTO 23004KT 10SM CLR 21/13 A3013 RMK AO2 SLP183 T02110128 53013
Loading
Personal Weather Stations






























Interactive Weather Map
Tropical Storm Tracking
New forecast layout! Learn more

10-Day Weather Forecast

Advertisements
Track Severe Weather on mobile